Big Bear Station Historical Data
Daily Summary for January 25, 2019 Units:  Both    English   Metric
Next Day »
Daily Weekly Monthly Yearly Custom
  High: Low: Average:
Temperature: 51.1 °F /  10.6 °C 17.6 °F /  -8 °C 33 °F /  0.6 °C
Dew Point: 22.2 °F /  -5.4 °C 3.2 °F /  -16 °C 14.4 °F /  -9.8 °C
Humidity: 89% 17% 53%
Wind Speed: 9.4mph /  15.1km/h - 2.1mph /  3.4km/h
Wind Gust: -999.0mph /  -1607.7km/h - -
Wind- - WSW
Pressure: 23.64 in /  800.5 hPa 23.57 in /  798.1 hPa -
Precipitation: 0.00 in /  0 mm    
Historical Graphs
 
 
Tabular Data for January 25, 2019
Time Temperature Dew Point Pressure Wind Wind Speed Wind Gust Humidity Rainfall Rate (Hourly)
00:06 21.9 °F /  -5.6 °C 16.4 °F /  -8.7 °C 23.63in /  800.1hPa Calm   -999.0mph /  -1607.7km/h 79% 0.00in /  0mm
00:22 21.4 °F /  -5.9 °C 16.2 °F /  -8.8 °C 23.62in /  799.8hPa Calm   -999.0mph /  -1607.7km/h 80% 0.00in /  0mm
00:37 21.7 °F /  -5.7 °C 16.8 °F /  -8.4 °C 23.63in /  800.1hPa Calm   -999.0mph /  -1607.7km/h 81% 0.00in /  0mm
00:52 21.2 °F /  -6 °C 13.9 °F /  -10.1 °C 23.62in /  799.8hPa Calm   -999.0mph /  -1607.7km/h 73% 0.00in /  0mm
01:07 21.2 °F /  -6 °C 15.1 °F /  -9.4 °C 23.62in /  799.8hPa Calm   -999.0mph /  -1607.7km/h 77% 0.00in /  0mm
01:23 21.0 °F /  -6.1 °C 15.8 °F /  -9 °C 23.62in /  799.8hPa Calm   -999.0mph /  -1607.7km/h 80% 0.00in /  0mm
01:38 20.8 °F /  -6.2 °C 17.0 °F /  -8.3 °C 23.63in /  800.1hPa Calm   -999.0mph /  -1607.7km/h 85% 0.00in /  0mm
01:53 20.8 °F /  -6.2 °C 16.7 °F /  -8.5 °C 23.63in /  800.1hPa Calm   -999.0mph /  -1607.7km/h 84% 0.00in /  0mm
02:08 20.1 °F /  -6.6 °C 15.8 °F /  -9 °C 23.63in /  800.1hPa Calm   -999.0mph /  -1607.7km/h 83% 0.00in /  0mm
02:23 20.5 °F /  -6.4 °C 15.3 °F /  -9.3 °C 23.63in /  800.1hPa Calm   -999.0mph /  -1607.7km/h 80% 0.00in /  0mm
02:39 21.0 °F /  -6.1 °C 14.0 °F /  -10 °C 23.63in /  800.1hPa Calm   -999.0mph /  -1607.7km/h 74% 0.00in /  0mm
02:54 21.0 °F /  -6.1 °C 14.9 °F /  -9.5 °C 23.62in /  799.8hPa Calm   -999.0mph /  -1607.7km/h 77% 0.00in /  0mm
03:09 20.8 °F /  -6.2 °C 13.5 °F /  -10.3 °C 23.62in /  799.8hPa Calm   -999.0mph /  -1607.7km/h 73% 0.00in /  0mm
03:24 20.5 °F /  -6.4 °C 13.2 °F /  -10.4 °C 23.62in /  799.8hPa Calm   -999.0mph /  -1607.7km/h 73% 0.00in /  0mm
03:39 20.3 °F /  -6.5 °C 14.8 °F /  -9.6 °C 23.61in /  799.4hPa Calm   -999.0mph /  -1607.7km/h 79% 0.00in /  0mm
03:55 19.9 °F /  -6.7 °C 14.1 °F /  -9.9 °C 23.61in /  799.4hPa Calm   -999.0mph /  -1607.7km/h 78% 0.00in /  0mm
04:10 19.4 °F /  -7 °C 13.4 °F /  -10.3 °C 23.61in /  799.4hPa Calm   -999.0mph /  -1607.7km/h 77% 0.00in /  0mm
04:25 19.2 °F /  -7.1 °C 14.6 °F /  -9.7 °C 23.60in /  799.1hPa Calm   -999.0mph /  -1607.7km/h 82% 0.00in /  0mm
04:40 19.2 °F /  -7.1 °C 14.9 °F /  -9.5 °C 23.61in /  799.4hPa Calm   -999.0mph /  -1607.7km/h 83% 0.00in /  0mm
04:55 18.9 °F /  -7.3 °C 15.4 °F /  -9.2 °C 23.61in /  799.4hPa Calm   -999.0mph /  -1607.7km/h 86% 0.00in /  0mm
05:11 18.7 °F /  -7.4 °C 15.5 °F /  -9.2 °C 23.61in /  799.4hPa Calm   -999.0mph /  -1607.7km/h 87% 0.00in /  0mm
05:26 18.5 °F /  -7.5 °C 15.3 °F /  -9.3 °C 23.61in /  799.4hPa Calm   -999.0mph /  -1607.7km/h 87% 0.00in /  0mm
05:41 18.3 °F /  -7.6 °C 15.1 °F /  -9.4 °C 23.60in /  799.1hPa Calm   -999.0mph /  -1607.7km/h 87% 0.00in /  0mm
05:56 18.5 °F /  -7.5 °C 15.8 °F /  -9 °C 23.60in /  799.1hPa Calm   -999.0mph /  -1607.7km/h 89% 0.00in /  0mm
06:11 18.5 °F /  -7.5 °C 15.3 °F /  -9.3 °C 23.60in /  799.1hPa Calm   -999.0mph /  -1607.7km/h 87% 0.00in /  0mm
06:27 18.3 °F /  -7.6 °C 14.8 °F /  -9.6 °C 23.61in /  799.4hPa Calm   -999.0mph /  -1607.7km/h 86% 0.00in /  0mm
06:42 17.6 °F /  -8 °C 13.3 °F /  -10.4 °C 23.61in /  799.4hPa Calm   -999.0mph /  -1607.7km/h 83% 0.00in /  0mm
06:57 17.6 °F /  -8 °C 13.0 °F /  -10.6 °C 23.61in /  799.4hPa Calm   -999.0mph /  -1607.7km/h 82% 0.00in /  0mm
07:12 17.8 °F /  -7.9 °C 14.3 °F /  -9.8 °C 23.61in /  799.4hPa Calm   -999.0mph /  -1607.7km/h 86% 0.00in /  0mm
07:27 17.8 °F /  -7.9 °C 14.1 °F /  -9.9 °C 23.61in /  799.4hPa Calm   -999.0mph /  -1607.7km/h 85% 0.00in /  0mm
07:43 18.1 °F /  -7.7 °C 14.9 °F /  -9.5 °C 23.61in /  799.4hPa Calm   -999.0mph /  -1607.7km/h 87% 0.00in /  0mm
07:58 18.0 °F /  -7.8 °C 14.5 °F /  -9.7 °C 23.61in /  799.4hPa Calm   -999.0mph /  -1607.7km/h 86% 0.00in /  0mm
08:13 19.2 °F /  -7.1 °C 15.4 °F /  -9.2 °C 23.61in /  799.4hPa Calm   -999.0mph /  -1607.7km/h 85% 0.00in /  0mm
08:28 21.7 °F /  -5.7 °C 15.3 °F /  -9.3 °C 23.62in /  799.8hPa Calm   -999.0mph /  -1607.7km/h 76% 0.00in /  0mm
08:44 24.6 °F /  -4.1 °C 17.8 °F /  -7.9 °C 23.62in /  799.8hPa Calm   -999.0mph /  -1607.7km/h 75% 0.00in /  0mm
08:59 23.5 °F /  -4.7 °C 18.2 °F /  -7.7 °C 23.62in /  799.8hPa Calm   -999.0mph /  -1607.7km/h 80% 0.00in /  0mm
09:14 25.9 °F /  -3.4 °C 19.1 °F /  -7.2 °C 23.63in /  800.1hPa Calm   -999.0mph /  -1607.7km/h 75% 0.00in /  0mm
09:29 26.1 °F /  -3.3 °C 18.9 °F /  -7.3 °C 23.63in /  800.1hPa Calm   -999.0mph /  -1607.7km/h 74% 0.00in /  0mm
09:44 27.5 °F /  -2.5 °C 20.0 °F /  -6.7 °C 23.63in /  800.1hPa Calm   -999.0mph /  -1607.7km/h 73% 0.00in /  0mm
10:00 31.5 °F /  -0.3 °C 21.1 °F /  -6.1 °C 23.64in /  800.5hPa Calm   -999.0mph /  -1607.7km/h 65% 0.00in /  0mm
10:15 33.8 °F /  1 °C 22.2 °F /  -5.4 °C 23.64in /  800.5hPa Calm   -999.0mph /  -1607.7km/h 62% 0.00in /  0mm
10:30 35.1 °F /  1.7 °C 21.4 °F /  -5.9 °C 23.63in /  800.1hPa Calm   -999.0mph /  -1607.7km/h 57% 0.00in /  0mm
10:45 39.6 °F /  4.2 °C 18.9 °F /  -7.3 °C 23.63in /  800.1hPa Calm   -999.0mph /  -1607.7km/h 43% 0.00in /  0mm
11:00 41.4 °F /  5.2 °C 16.4 °F /  -8.7 °C 23.63in /  800.1hPa Calm   -999.0mph /  -1607.7km/h 36% 0.00in /  0mm
11:16 44.6 °F /  7 °C 11.8 °F /  -11.2 °C 23.62in /  799.8hPa Calm   -999.0mph /  -1607.7km/h 26% 0.00in /  0mm
11:31 48.9 °F /  9.4 °C 9.5 °F /  -12.5 °C 23.61in /  799.4hPa Calm   -999.0mph /  -1607.7km/h 20% 0.00in /  0mm
11:46 48.7 °F /  9.3 °C 10.5 °F /  -11.9 °C 23.61in /  799.4hPa Calm   -999.0mph /  -1607.7km/h 21% 0.00in /  0mm
12:01 50.2 °F /  10.1 °C 11.7 °F /  -11.3 °C 23.61in /  799.4hPa NW 2.7mph /  4.3km/h -999.0mph /  -1607.7km/h 21% 0.00in /  0mm
12:16 50.2 °F /  10.1 °C 16.6 °F /  -8.6 °C 23.60in /  799.1hPa NNW 2.2mph /  3.5km/h -999.0mph /  -1607.7km/h 26% 0.00in /  0mm
12:32 51.1 °F /  10.6 °C 11.4 °F /  -11.4 °C 23.60in /  799.1hPa NW 3.2mph /  5.1km/h -999.0mph /  -1607.7km/h 20% 0.00in /  0mm
12:47 49.6 °F /  9.8 °C 17.8 °F /  -7.9 °C 23.59in /  798.8hPa NNW 2.7mph /  4.3km/h -999.0mph /  -1607.7km/h 28% 0.00in /  0mm
13:02 50.4 °F /  10.2 °C 18.5 °F /  -7.5 °C 23.59in /  798.8hPa NNW 3.7mph /  6km/h -999.0mph /  -1607.7km/h 28% 0.00in /  0mm
13:18 48.6 °F /  9.2 °C 19.3 °F /  -7.1 °C 23.59in /  798.8hPa WNW 3.7mph /  6km/h -999.0mph /  -1607.7km/h 31% 0.00in /  0mm
13:33 47.3 °F /  8.5 °C 18.9 °F /  -7.3 °C 23.59in /  798.8hPa NW 2.7mph /  4.3km/h -999.0mph /  -1607.7km/h 32% 0.00in /  0mm
13:49 47.7 °F /  8.7 °C 18.5 °F /  -7.5 °C 23.59in /  798.8hPa NW 4.2mph /  6.8km/h -999.0mph /  -1607.7km/h 31% 0.00in /  0mm
14:04 48.0 °F /  8.9 °C 16.4 °F /  -8.7 °C 23.59in /  798.8hPa Calm   -999.0mph /  -1607.7km/h 28% 0.00in /  0mm
14:19 48.0 °F /  8.9 °C 16.4 °F /  -8.7 °C 23.59in /  798.8hPa Calm   -999.0mph /  -1607.7km/h 28% 0.00in /  0mm
14:34 47.1 °F /  8.4 °C 18.0 °F /  -7.8 °C 23.59in /  798.8hPa NNW 4.2mph /  6.8km/h -999.0mph /  -1607.7km/h 31% 0.00in /  0mm
14:49 46.2 °F /  7.9 °C 12.3 °F /  -10.9 °C 23.59in /  798.8hPa NNW 3.7mph /  6km/h -999.0mph /  -1607.7km/h 25% 0.00in /  0mm
15:05 45.9 °F /  7.7 °C 5.9 °F /  -14.5 °C 23.58in /  798.4hPa North 3.2mph /  5.1km/h -999.0mph /  -1607.7km/h 19% 0.00in /  0mm
15:20 45.5 °F /  7.5 °C 5.6 °F /  -14.7 °C 23.59in /  798.8hPa Calm   -999.0mph /  -1607.7km/h 19% 0.00in /  0mm
15:35 45.5 °F /  7.5 °C 4.4 °F /  -15.3 °C 23.59in /  798.8hPa NW 2.7mph /  4.3km/h -999.0mph /  -1607.7km/h 18% 0.00in /  0mm
15:50 45.5 °F /  7.5 °C 3.2 °F /  -16 °C 23.59in /  798.8hPa NNE 4.7mph /  7.6km/h -999.0mph /  -1607.7km/h 17% 0.00in /  0mm
16:06 44.4 °F /  6.9 °C 8.9 °F /  -12.8 °C 23.59in /  798.8hPa NNE 1.7mph /  2.7km/h -999.0mph /  -1607.7km/h 23% 0.00in /  0mm
16:21 44.2 °F /  6.8 °C 4.5 °F /  -15.3 °C 23.59in /  798.8hPa NNW 4.2mph /  6.8km/h -999.0mph /  -1607.7km/h 19% 0.00in /  0mm
16:36 43.2 °F /  6.2 °C 7.9 °F /  -13.4 °C 23.58in /  798.4hPa NW 3.7mph /  6km/h -999.0mph /  -1607.7km/h 23% 0.00in /  0mm
16:51 40.5 °F /  4.7 °C 13.6 °F /  -10.2 °C 23.58in /  798.4hPa Calm   -999.0mph /  -1607.7km/h 33% 0.00in /  0mm
17:06 39.2 °F /  4 °C 13.8 °F /  -10.1 °C 23.58in /  798.4hPa Calm   -999.0mph /  -1607.7km/h 35% 0.00in /  0mm
17:22 37.9 °F /  3.3 °C 10.6 °F /  -11.9 °C 23.58in /  798.4hPa Calm   -999.0mph /  -1607.7km/h 32% 0.00in /  0mm
17:37 37.2 °F /  2.9 °C 10.0 °F /  -12.2 °C 23.58in /  798.4hPa SW 1.1mph /  1.8km/h -999.0mph /  -1607.7km/h 32% 0.00in /  0mm
17:52 36.9 °F /  2.7 °C 7.6 °F /  -13.6 °C 23.57in /  798.1hPa West 3.2mph /  5.1km/h -999.0mph /  -1607.7km/h 29% 0.00in /  0mm
18:07 37.4 °F /  3 °C 8.0 °F /  -13.3 °C 23.58in /  798.4hPa South 4.7mph /  7.6km/h -999.0mph /  -1607.7km/h 29% 0.00in /  0mm
18:23 38.5 °F /  3.6 °C 10.5 °F /  -11.9 °C 23.58in /  798.4hPa NW 4.7mph /  7.6km/h -999.0mph /  -1607.7km/h 31% 0.00in /  0mm
18:38 39.2 °F /  4 °C 12.5 °F /  -10.8 °C 23.59in /  798.8hPa NNW 7.3mph /  11.7km/h -999.0mph /  -1607.7km/h 33% 0.00in /  0mm
18:53 40.5 °F /  4.7 °C 13.6 °F /  -10.2 °C 23.58in /  798.4hPa NNW 8.9mph /  14.3km/h -999.0mph /  -1607.7km/h 33% 0.00in /  0mm
19:09 41.0 °F /  5 °C 11.9 °F /  -11.2 °C 23.58in /  798.4hPa NW 7.8mph /  12.6km/h -999.0mph /  -1607.7km/h 30% 0.00in /  0mm
19:24 40.3 °F /  4.6 °C 13.4 °F /  -10.3 °C 23.58in /  798.4hPa NNW 7.8mph /  12.6km/h -999.0mph /  -1607.7km/h 33% 0.00in /  0mm
19:39 40.3 °F /  4.6 °C 13.4 °F /  -10.3 °C 23.59in /  798.8hPa NW 9.4mph /  15.1km/h -999.0mph /  -1607.7km/h 33% 0.00in /  0mm
19:55 39.9 °F /  4.4 °C 13.1 °F /  -10.5 °C 23.60in /  799.1hPa NNE 6.8mph /  10.9km/h -999.0mph /  -1607.7km/h 33% 0.00in /  0mm
20:10 39.0 °F /  3.9 °C 14.3 °F /  -9.8 °C 23.61in /  799.4hPa West 2.7mph /  4.3km/h -999.0mph /  -1607.7km/h 36% 0.00in /  0mm
20:25 38.5 °F /  3.6 °C 12.5 °F /  -10.8 °C 23.60in /  799.1hPa North 4.7mph /  7.6km/h -999.0mph /  -1607.7km/h 34% 0.00in /  0mm
20:40 38.3 °F /  3.5 °C 13.0 °F /  -10.6 °C 23.61in /  799.4hPa NNW 4.7mph /  7.6km/h -999.0mph /  -1607.7km/h 35% 0.00in /  0mm
20:55 37.9 °F /  3.3 °C 13.3 °F /  -10.4 °C 23.61in /  799.4hPa West 7.3mph /  11.7km/h -999.0mph /  -1607.7km/h 36% 0.00in /  0mm
21:11 37.2 °F /  2.9 °C 13.9 °F /  -10.1 °C 23.62in /  799.8hPa NNE 5.8mph /  9.3km/h -999.0mph /  -1607.7km/h 38% 0.00in /  0mm
21:26 37.2 °F /  2.9 °C 15.1 °F /  -9.4 °C 23.62in /  799.8hPa ENE 4.2mph /  6.8km/h -999.0mph /  -1607.7km/h 40% 0.00in /  0mm
21:41 37.6 °F /  3.1 °C 15.4 °F /  -9.2 °C 23.62in /  799.8hPa NNE 5.3mph /  8.5km/h -999.0mph /  -1607.7km/h 40% 0.00in /  0mm
21:56 37.9 °F /  3.3 °C 15.7 °F /  -9.1 °C 23.63in /  800.1hPa WNW 4.2mph /  6.8km/h -999.0mph /  -1607.7km/h 40% 0.00in /  0mm
22:12 37.9 °F /  3.3 °C 15.7 °F /  -9.1 °C 23.63in /  800.1hPa NE 3.7mph /  6km/h -999.0mph /  -1607.7km/h 40% 0.00in /  0mm
22:27 38.1 °F /  3.4 °C 15.3 °F /  -9.3 °C 23.63in /  800.1hPa West 4.7mph /  7.6km/h -999.0mph /  -1607.7km/h 39% 0.00in /  0mm
22:42 37.9 °F /  3.3 °C 16.8 °F /  -8.4 °C 23.62in /  799.8hPa SE 5.8mph /  9.3km/h -999.0mph /  -1607.7km/h 42% 0.00in /  0mm
22:57 38.3 °F /  3.5 °C 16.1 °F /  -8.8 °C 23.62in /  799.8hPa NNW 9.4mph /  15.1km/h -999.0mph /  -1607.7km/h 40% 0.00in /  0mm
23:12 37.9 °F /  3.3 °C 16.3 °F /  -8.7 °C 23.62in /  799.8hPa West 6.3mph /  10.1km/h -999.0mph /  -1607.7km/h 41% 0.00in /  0mm
23:28 38.1 °F /  3.4 °C 16.5 °F /  -8.6 °C 23.63in /  800.1hPa North 7.3mph /  11.7km/h -999.0mph /  -1607.7km/h 41% 0.00in /  0mm
23:43 37.8 °F /  3.2 °C 16.2 °F /  -8.8 °C 23.63in /  800.1hPa South 4.2mph /  6.8km/h -999.0mph /  -1607.7km/h 41% 0.00in /  0mm
23:58 37.9 °F /  3.3 °C 16.3 °F /  -8.7 °C 23.64in /  800.5hPa SE 2.7mph /  4.3km/h -999.0mph /  -1607.7km/h 41% 0.00in /  0mm
Big Bear CA Weather